Time;durP1;ratioP1;P1;durP2;ratioP2;P2;SDS_P1;SDS_P2;PMS_P1;PMS_P2;Temp;Humidity;BMP_temperature;BMP_pressure;BME280_temperature;BME280_humidity;BME280_pressure;Samples;Min_cycle;Max_cycle;Signal;HPM_P1;HPM_P2
2022/10/04 00:01:48;;;;;;;;;29.75;26.25;;;;;21.56;52.75;101454.44;5073337;28;45369;-51
2022/10/04 00:04:18;;;;;;;;;24.50;23.50;;;;;21.57;52.71;101456.19;5064712;28;45513;-47
2022/10/04 00:06:49;;;;;;;;;25.00;22.25;;;;;21.56;52.45;101449.13;5066299;28;47243;-52
2022/10/04 00:09:17;;;;;;;;;27.25;24.75;;;;;21.56;52.50;101462.41;5075186;28;45303;-51
2022/10/04 00:11:43;;;;;;;;;29.75;26.25;;;;;21.57;52.62;101459.72;5072673;28;45362;-51
2022/10/04 00:14:14;;;;;;;;;28.75;26.50;;;;;21.57;52.55;101461.50;5069938;28;45618;-52
2022/10/04 00:16:39;;;;;;;;;24.25;20.25;;;;;21.58;52.37;101457.94;5063710;28;46244;-48
2022/10/04 00:19:14;;;;;;;;;29.50;25.00;;;;;21.57;52.11;101451.75;5074720;28;45357;-48
2022/10/04 00:21:58;;;;;;;;;30.50;27.50;;;;;21.58;52.15;101461.47;5067511;28;45553;-50
2022/10/04 00:24:24;;;;;;;;;32.50;27.00;;;;;21.58;52.38;101455.28;5065217;27;45350;-47
2022/10/04 00:26:49;;;;;;;;;26.75;25.50;;;;;21.57;52.53;101451.75;5073913;28;46109;-48
2022/10/04 00:29:34;;;;;;;;;31.25;26.75;;;;;21.58;52.43;101455.28;5072864;28;45481;-47
2022/10/04 00:32:08;;;;;;;;;30.25;27.25;;;;;21.58;52.20;101447.31;5061377;28;45349;-47
2022/10/04 00:34:33;;;;;;;;;27.75;23.50;;;;;21.58;52.34;101455.28;5070479;28;45396;-49
2022/10/04 00:36:59;;;;;;;;;26.50;26.50;;;;;21.58;52.05;101452.63;5077625;27;46220;-49
2022/10/04 00:39:30;;;;;;;;;29.75;28.00;;;;;21.58;52.43;101452.63;5053356;28;45376;-49
2022/10/04 00:42:02;;;;;;;;;26.50;24.00;;;;;21.58;52.21;101461.47;5077399;28;45431;-48
2022/10/04 00:45:24;;;;;;;;;24.75;24.25;;;;;21.58;52.00;101447.31;5064979;28;45442;-47
2022/10/04 00:47:49;;;;;;;;;25.50;24.50;;;;;21.59;52.28;101446.38;4973310;28;45826;-47
2022/10/04 00:50:40;;;;;;;;;29.00;25.50;;;;;21.58;51.85;101450.84;4983956;28;45533;-48
2022/10/04 00:53:36;;;;;;;;;30.00;26.50;;;;;21.59;51.95;101449.03;5032737;28;45363;-51
2022/10/04 00:56:02;;;;;;;;;25.00;24.25;;;;;21.59;52.00;101441.06;5056986;28;45521;-46
2022/10/04 00:58:31;;;;;;;;;31.00;27.00;;;;;21.58;52.26;101436.69;5063628;28;51207;-48
2022/10/04 01:00:56;;;;;;;;;29.50;25.50;;;;;21.57;52.06;101430.50;5079027;28;45396;-46
2022/10/04 01:03:31;;;;;;;;;29.75;26.25;;;;;21.58;51.82;101439.34;5056667;28;54926;-50
2022/10/04 01:05:59;;;;;;;;;29.00;24.00;;;;;21.59;51.53;101435.75;5053182;28;45477;-51
2022/10/04 01:08:30;;;;;;;;;31.50;28.50;;;;;21.57;51.90;101430.50;5068522;28;45414;-47
2022/10/04 01:10:56;;;;;;;;;30.75;24.50;;;;;21.58;51.76;101429.59;5076724;28;45306;-47
2022/10/04 01:13:26;;;;;;;;;27.25;25.25;;;;;21.57;51.67;101425.19;5068051;28;45385;-50
2022/10/04 01:16:14;;;;;;;;;28.25;23.50;;;;;21.57;52.03;101421.66;5076623;28;45610;-47
2022/10/04 01:18:40;;;;;;;;;31.00;25.75;;;;;21.57;52.00;101427.84;5077495;28;46155;-47
2022/10/04 01:21:18;;;;;;;;;29.50;24.75;;;;;21.55;52.05;101419.03;5061725;28;45322;-47
2022/10/04 01:23:48;;;;;;;;;24.75;21.50;;;;;21.56;51.79;101403.97;5079426;28;45598;-48
2022/10/04 01:26:25;;;;;;;;;26.50;24.25;;;;;21.56;51.85;101398.66;5066952;28;45451;-50
2022/10/04 01:29:01;;;;;;;;;35.00;27.75;;;;;21.55;51.67;101395.13;5073735;27;45370;-47
2022/10/04 01:31:27;;;;;;;;;26.50;25.75;;;;;21.55;51.73;101397.78;5056310;28;46493;-50
2022/10/04 01:33:55;;;;;;;;;27.50;25.00;;;;;21.56;51.74;101390.69;5065245;28;45351;-48
2022/10/04 01:36:21;;;;;;;;;25.25;23.25;;;;;21.56;51.68;101390.69;5078512;28;45504;-49
2022/10/04 01:38:46;;;;;;;;;30.00;27.75;;;;;21.56;51.43;101388.03;5073406;28;46139;-52
2022/10/04 01:41:13;;;;;;;;;28.75;26.25;;;;;21.55;51.42;101392.47;5052206;28;45441;-49
2022/10/04 01:43:38;;;;;;;;;27.50;25.75;;;;;21.56;51.38;101388.03;5076097;28;45453;-46
2022/10/04 01:46:08;;;;;;;;;31.75;25.50;;;;;21.56;51.63;101396.00;5043470;28;45570;-47
2022/10/04 01:48:35;;;;;;;;;28.75;26.25;;;;;21.55;51.01;101389.81;5065747;28;47065;-47
2022/10/04 01:51:03;;;;;;;;;30.75;24.75;;;;;21.55;51.50;101389.81;5065382;28;49571;-47
2022/10/04 01:53:29;;;;;;;;;28.25;24.00;;;;;21.56;51.49;101382.72;5056258;28;45403;-51
2022/10/04 01:56:16;;;;;;;;;34.50;24.25;;;;;21.56;51.04;101377.41;5070510;28;45566;-49
2022/10/04 01:58:42;;;;;;;;;27.25;26.75;;;;;21.56;51.58;101377.41;5061213;28;45486;-48
2022/10/04 02:01:27;;;;;;;;;28.00;26.75;;;;;21.56;51.31;101380.94;5068961;28;45611;-46
2022/10/04 02:04:04;;;;;;;;;32.25;28.75;;;;;21.55;51.63;101376.53;5073196;28;45518;-50
2022/10/04 02:06:36;;;;;;;;;27.75;25.25;;;;;21.54;51.41;101377.44;5071290;27;46171;-51
2022/10/04 02:09:01;;;;;;;;;28.75;27.75;;;;;21.54;51.90;101369.47;5071580;28;45662;-52
2022/10/04 02:11:29;;;;;;;;;25.50;24.25;;;;;21.53;51.87;101362.41;5060776;28;45469;-49
2022/10/04 02:13:54;;;;;;;;;28.00;27.25;;;;;21.54;51.57;101357.97;5068915;28;45416;-51
2022/10/04 02:16:19;;;;;;;;;26.25;23.75;;;;;21.55;51.53;101354.44;5066141;28;45318;-51
2022/10/04 02:18:45;;;;;;;;;27.25;25.00;;;;;21.55;51.58;101354.44;5062416;28;60708;-51
2022/10/04 02:21:10;;;;;;;;;26.25;24.00;;;;;21.54;51.21;101348.22;5064577;28;63786;-49
2022/10/04 02:23:36;;;;;;;;;26.00;24.75;;;;;21.55;51.09;101342.00;5046509;28;45319;-50
2022/10/04 02:26:05;;;;;;;;;26.75;23.25;;;;;21.55;51.27;101335.84;5059109;28;66653;-49
2022/10/04 02:28:31;;;;;;;;;26.25;23.25;;;;;21.55;50.91;101327.88;5073314;28;46526;-51
2022/10/04 02:33:41;;;;;;;;;28.75;25.50;;;;;21.55;51.20;101334.03;5063939;28;45336;-50
2022/10/04 02:36:08;;;;;;;;;29.50;26.25;;;;;21.54;50.79;101331.41;5076236;28;45829;-52
2022/10/04 02:38:35;;;;;;;;;32.25;27.75;;;;;21.53;51.15;101319.91;5060338;28;46177;-49
2022/10/04 02:41:07;;;;;;;;;23.75;23.75;;;;;21.54;50.90;101324.31;5046339;28;45293;-50
2022/10/04 02:43:45;;;;;;;;;35.50;28.00;;;;;21.55;50.99;101327.88;5075869;28;45362;-47
2022/10/04 02:46:19;;;;;;;;;27.25;26.25;;;;;21.55;50.99;101322.56;5067814;28;45508;-51
2022/10/04 02:48:51;;;;;;;;;28.75;26.00;;;;;21.55;50.64;101319.91;5064311;27;46275;-50
2022/10/04 02:51:27;;;;;;;;;22.25;22.25;;;;;21.54;50.71;101312.81;5072904;28;45321;-47
2022/10/04 02:54:01;;;;;;;;;26.75;19.50;;;;;21.55;50.64;101322.56;5055639;28;45635;-50
2022/10/04 02:56:26;;;;;;;;;26.00;18.25;;;;;21.55;50.35;101314.59;5070092;27;45473;-48
2022/10/04 02:58:52;;;;;;;;;27.50;25.25;;;;;21.55;50.23;101314.59;5067834;28;56842;-49
2022/10/04 03:01:26;;;;;;;;;21.50;20.50;;;;;21.55;50.80;101306.63;5052719;28;45366;-47
2022/10/04 03:03:52;;;;;;;;;29.00;24.25;;;;;21.54;49.95;101311.03;5070459;28;46401;-52
2022/10/04 03:06:18;;;;;;;;;26.50;23.25;;;;;21.55;50.64;101317.25;5067438;27;45340;-49
2022/10/04 03:08:44;;;;;;;;;29.00;23.75;;;;;21.55;50.37;101312.81;5060316;28;46472;-52
2022/10/04 03:11:10;;;;;;;;;26.00;24.00;;;;;21.54;50.84;101315.47;5073409;28;45262;-52
2022/10/04 03:13:36;;;;;;;;;27.00;25.50;;;;;21.54;50.09;101320.78;5047877;28;45437;-52
2022/10/04 03:16:01;;;;;;;;;31.25;24.75;;;;;21.55;50.38;101317.25;5065176;28;45485;-51
2022/10/04 03:18:27;;;;;;;;;28.75;26.25;;;;;21.56;49.90;101316.31;5044410;28;62989;-48
2022/10/04 03:20:53;;;;;;;;;21.00;19.00;;;;;21.55;50.05;101314.59;5060046;28;45502;-48
2022/10/04 03:23:18;;;;;;;;;23.25;23.25;;;;;21.56;50.25;101308.34;5078692;27;63848;-50
2022/10/04 03:25:52;;;;;;;;;25.25;23.25;;;;;21.55;50.01;101307.47;5059362;28;45321;-47
2022/10/04 03:28:18;;;;;;;;;25.50;23.75;;;;;21.54;49.72;101303.06;5076963;28;46528;-50
2022/10/04 03:30:44;;;;;;;;;26.00;24.50;;;;;21.54;50.10;101291.56;5058246;28;71278;-49
2022/10/04 03:33:15;;;;;;;;;22.25;19.75;;;;;21.55;49.95;101288.03;5068135;27;45333;-53
2022/10/04 03:35:40;;;;;;;;;28.50;24.50;;;;;21.55;50.08;101286.22;5073347;28;50314;-52
2022/10/04 03:38:07;;;;;;;;;24.00;23.25;;;;;21.55;49.76;101280.94;5069454;28;65460;-47
2022/10/04 03:40:33;;;;;;;;;31.75;25.50;;;;;21.55;50.21;101278.28;5049110;28;46150;-47
2022/10/04 03:42:59;;;;;;;;;22.25;20.25;;;;;21.54;49.67;101267.66;5060483;28;45381;-49
2022/10/04 03:45:24;;;;;;;;;25.50;23.00;;;;;21.54;50.00;101268.53;5051645;28;45418;-51
2022/10/04 03:47:50;;;;;;;;;21.75;20.50;;;;;21.53;50.01;101266.78;5066256;28;69495;-50
2022/10/04 03:50:25;;;;;;;;;26.00;24.25;;;;;21.52;49.79;101266.84;5068650;28;45331;-52
2022/10/04 03:52:56;;;;;;;;;26.50;26.00;;;;;21.52;49.58;101270.38;5061300;28;45334;-50
2022/10/04 03:55:23;;;;;;;;;28.00;25.25;;;;;21.53;49.53;101271.22;5064993;28;50692;-51
2022/10/04 03:57:49;;;;;;;;;24.25;23.25;;;;;21.53;50.11;101273.88;5063586;28;45479;-50
2022/10/04 04:00:16;;;;;;;;;27.00;23.25;;;;;21.52;49.95;101274.81;5075812;27;68565;-52
2022/10/04 04:02:51;;;;;;;;;19.75;19.75;;;;;21.51;49.97;101279.25;5059342;28;45487;-53
2022/10/04 04:05:55;;;;;;;;;23.00;21.00;;;;;21.50;49.64;101261.56;5063303;28;45473;-48
2022/10/04 04:08:34;;;;;;;;;27.50;24.25;;;;;21.51;49.58;101271.28;5031306;28;45491;-50
2022/10/04 04:11:01;;;;;;;;;21.00;19.75;;;;;21.50;49.46;101268.66;5073054;28;45441;-47
2022/10/04 04:13:50;;;;;;;;;22.00;21.00;;;;;21.50;49.87;101269.53;5047609;28;45295;-49
2022/10/04 04:16:18;;;;;;;;;19.75;19.00;;;;;21.51;49.50;101283.69;5074041;28;45557;-52
2022/10/04 04:18:43;;;;;;;;;25.00;21.50;;;;;21.50;49.58;101282.81;5061042;28;46460;-47
2022/10/04 04:21:09;;;;;;;;;24.25;21.50;;;;;21.50;49.92;101282.81;5058938;28;45348;-50
2022/10/04 04:23:36;;;;;;;;;25.25;23.50;;;;;21.50;49.43;101289.91;5068591;28;45325;-46
2022/10/04 04:26:14;;;;;;;;;24.25;23.00;;;;;21.50;49.79;101297.88;5066766;28;45161;-51
2022/10/04 04:28:50;;;;;;;;;28.00;23.25;;;;;21.50;49.58;101298.75;5076142;28;45569;-51
2022/10/04 04:31:17;;;;;;;;;23.50;22.75;;;;;21.49;49.07;101297.00;5072142;28;45457;-53
2022/10/04 04:34:02;;;;;;;;;27.00;23.50;;;;;21.50;49.73;101303.19;5067421;27;45501;-53
2022/10/04 04:36:29;;;;;;;;;22.75;20.25;;;;;21.50;49.74;101311.16;5079476;27;45421;-52
2022/10/04 04:39:33;;;;;;;;;23.25;20.75;;;;;21.49;49.54;101306.78;5050796;28;47114;-49
2022/10/04 04:41:59;;;;;;;;;25.00;22.75;;;;;21.48;49.46;101303.25;5076020;28;45203;-51
2022/10/04 04:44:24;;;;;;;;;22.00;19.50;;;;;21.48;49.48;101297.06;5064168;28;45290;-51
2022/10/04 04:46:50;;;;;;;;;22.75;21.25;;;;;21.49;49.53;101296.16;5058722;28;45418;-48
2022/10/04 04:49:16;;;;;;;;;21.75;21.00;;;;;21.48;49.23;101292.63;5064170;28;60297;-48
2022/10/04 04:51:41;;;;;;;;;26.25;22.00;;;;;21.49;49.32;101296.16;5070491;28;45173;-51
2022/10/04 04:54:06;;;;;;;;;25.50;22.50;;;;;21.48;49.12;101297.94;5074233;28;65247;-51
2022/10/04 04:56:32;;;;;;;;;25.00;23.00;;;;;21.48;49.39;101297.94;5071462;27;55395;-48
2022/10/04 04:58:58;;;;;;;;;24.75;23.75;;;;;21.49;49.23;101298.81;5063246;28;58993;-50
2022/10/04 05:01:24;;;;;;;;;23.75;19.50;;;;;21.49;49.47;101299.66;5071224;28;45429;-48
2022/10/04 05:03:59;;;;;;;;;23.00;19.75;;;;;21.49;48.68;101297.00;5072178;28;45392;-51
2022/10/04 05:06:25;;;;;;;;;25.25;21.25;;;;;21.50;48.59;101301.41;5067864;27;45449;-52
2022/10/04 05:08:51;;;;;;;;;27.50;25.75;;;;;21.52;48.75;101301.38;5073098;28;45595;-50
2022/10/04 05:11:16;;;;;;;;;22.00;17.75;;;;;21.53;49.00;101305.75;5074435;28;66721;-53
2022/10/04 05:13:50;;;;;;;;;25.50;23.75;;;;;21.53;49.00;101298.66;5076353;28;65925;-48
2022/10/04 05:16:24;;;;;;;;;23.00;19.25;;;;;21.55;48.85;101299.50;5067414;28;45469;-49
2022/10/04 05:19:20;;;;;;;;;21.50;19.75;;;;;21.55;48.58;101306.63;5078623;27;46123;-52
2022/10/04 05:21:46;;;;;;;;;20.25;19.75;;;;;21.55;48.84;101314.59;5066487;28;45298;-50
2022/10/04 05:24:25;;;;;;;;;24.00;21.00;;;;;21.56;48.45;101311.00;5060111;28;45393;-49
2022/10/04 05:27:01;;;;;;;;;20.50;18.25;;;;;21.57;48.15;101303.00;5061789;28;45512;-49
2022/10/04 05:29:28;;;;;;;;;24.75;20.75;;;;;21.58;48.83;101301.22;5068073;28;45460;-46
2022/10/04 05:32:00;;;;;;;;;25.00;22.75;;;;;21.57;48.82;101305.66;5075848;28;48065;-43
2022/10/04 05:34:27;;;;;;;;;25.25;22.00;;;;;21.56;48.83;101295.06;5074031;28;45277;-47
2022/10/04 05:37:19;;;;;;;;;21.25;19.00;;;;;21.55;48.80;101291.56;5076259;27;46641;-44
2022/10/04 05:39:51;;;;;;;;;21.50;20.50;;;;;21.55;48.93;101296.00;5067391;28;46029;-43
2022/10/04 05:42:23;;;;;;;;;18.75;16.25;;;;;21.55;48.80;101298.66;5075905;27;45336;-43
2022/10/04 05:44:51;;;;;;;;;21.00;19.25;;;;;21.55;48.98;101290.69;5046255;28;45469;-45
2022/10/04 05:47:22;;;;;;;;;21.25;18.50;;;;;21.55;49.41;101301.31;5069022;28;45361;-43
2022/10/04 05:49:48;;;;;;;;;20.25;17.50;;;;;21.53;49.01;101298.66;5062684;28;46430;-44
2022/10/04 05:52:29;;;;;;;;;20.00;18.00;;;;;21.53;49.05;101296.00;5038121;28;45892;-43
2022/10/04 05:55:15;;;;;;;;;20.25;17.75;;;;;21.53;49.23;101301.31;5071079;28;45503;-45
2022/10/04 05:58:18;;;;;;;;;21.25;19.00;;;;;21.53;49.53;101296.00;5066725;28;45598;-48
2022/10/04 06:00:46;;;;;;;;;20.50;19.00;;;;;21.54;49.57;101283.59;5067706;28;45448;-44
2022/10/04 06:03:42;;;;;;;;;21.00;19.75;;;;;21.55;48.98;101291.56;5074616;27;45286;-45
2022/10/04 06:06:23;;;;;;;;;26.00;22.25;;;;;21.56;49.48;101293.28;5071557;28;45562;-44
2022/10/04 06:09:18;;;;;;;;;21.75;18.25;;;;;21.57;49.31;101283.53;5070743;28;48854;-44
2022/10/04 06:12:06;;;;;;;;;25.75;23.00;;;;;21.58;49.27;101288.78;5067663;28;46830;-43
2022/10/04 06:14:37;;;;;;;;;22.00;19.75;;;;;21.58;49.25;101282.63;5066462;27;45688;-44
2022/10/04 06:17:40;;;;;;;;;23.50;22.25;;;;;21.60;49.54;101305.56;5077300;28;45653;-45
2022/10/04 06:20:16;;;;;;;;;23.75;20.25;;;;;21.61;49.01;101298.47;5069874;28;45342;-43
2022/10/04 06:22:46;;;;;;;;;23.25;19.75;;;;;21.61;49.52;101277.22;5058160;28;47847;-46
2022/10/04 06:25:16;;;;;;;;;22.50;19.75;;;;;21.62;49.73;101281.59;5063122;28;45348;-50
2022/10/04 06:27:48;;;;;;;;;23.00;22.25;;;;;21.63;49.30;101293.97;5061338;28;45346;-48
2022/10/04 06:30:14;;;;;;;;;23.00;19.25;;;;;21.64;49.41;101298.41;5074703;27;45524;-45
2022/10/04 06:33:01;;;;;;;;;23.75;21.25;;;;;21.65;49.42;101308.09;5071165;28;45420;-46
2022/10/04 06:35:26;;;;;;;;;22.75;20.00;;;;;21.66;49.21;101310.72;5044421;28;45427;-42
2022/10/04 06:38:13;;;;;;;;;23.75;19.75;;;;;21.66;49.46;101309.84;5060511;28;45278;-47
2022/10/04 06:40:51;;;;;;;;;19.00;19.00;;;;;21.20;45.99;101305.72;5075492;28;45308;-43
2022/10/04 06:43:22;;;;;;;;;17.00;15.00;;;;;20.28;46.78;101325.53;5069979;28;47108;-45
2022/10/04 06:46:08;;;;;;;;;28.00;25.00;;;;;19.38;47.15;101330.81;5063401;28;45383;-43
2022/10/04 06:48:59;;;;;;;;;20.50;20.25;;;;;18.61;47.98;101324.97;5061231;28;45228;-44
2022/10/04 06:52:01;;;;;;;;;24.25;22.75;;;;;17.97;49.28;101318.75;5073900;28;45464;-42
2022/10/04 06:55:04;;;;;;;;;25.50;23.25;;;;;17.38;50.33;101328.19;5062991;28;47320;-42
2022/10/04 06:57:58;;;;;;;;;23.75;21.50;;;;;17.20;52.73;101329.22;5071371;28;45270;-43
2022/10/04 07:00:27;;;;;;;;;20.50;18.00;;;;;17.46;53.15;101322.78;5073403;27;45346;-42
2022/10/04 07:03:03;;;;;;;;;24.00;20.00;;;;;17.79;53.43;101318.97;5043944;28;45397;-43
2022/10/04 07:05:49;;;;;;;;;22.25;18.25;;;;;18.17;53.30;101325.59;5069179;28;45989;-44
2022/10/04 07:08:33;;;;;;;;;24.25;21.25;;;;;18.62;53.03;101319.66;5060087;28;45399;-42
2022/10/04 07:11:14;;;;;;;;;22.00;20.00;;;;;19.01;52.42;101327.03;5073641;28;45375;-45
2022/10/04 07:13:48;;;;;;;;;22.50;21.25;;;;;19.30;52.11;101315.97;5053797;28;45518;-42
2022/10/04 07:16:16;;;;;;;;;21.50;18.00;;;;;19.54;51.43;101317.28;5060570;27;45696;-44
2022/10/04 07:18:43;;;;;;;;;23.00;16.50;;;;;19.74;51.27;101320.47;5059956;28;45271;-46
2022/10/04 07:21:11;;;;;;;;;16.75;15.50;;;;;19.92;50.98;101320.09;5058676;28;45386;-48
2022/10/04 07:23:48;;;;;;;;;22.50;18.00;;;;;20.11;50.77;101328.56;5058498;28;45287;-44
2022/10/04 07:26:20;;;;;;;;;19.75;18.25;;;;;20.27;50.79;101319.38;5067966;28;51571;-47
2022/10/04 07:29:19;;;;;;;;;20.25;16.00;;;;;20.42;50.40;101325.25;5041458;28;45409;-44
2022/10/04 07:31:37;;;;;;;;;21.50;20.25;;;;;20.55;50.60;101316.13;5073591;28;45543;-42
2022/10/04 07:34:19;;;;;;;;;22.75;21.25;;;;;20.65;50.43;101317.66;5068739;28;45267;-44
2022/10/04 07:37:05;;;;;;;;;20.00;18.75;;;;;20.75;50.15;101327.16;5056602;28;45425;-42
2022/10/04 07:39:51;;;;;;;;;22.00;17.00;;;;;20.84;49.88;101326.06;5059706;28;45261;-44
2022/10/04 07:42:24;;;;;;;;;22.00;18.50;;;;;20.92;50.01;101331.19;5075004;28;45190;-41
2022/10/04 07:44:58;;;;;;;;;25.50;20.50;;;;;20.96;50.08;101333.75;5034967;28;50573;-41
2022/10/04 07:47:28;;;;;;;;;23.50;18.50;;;;;21.03;49.64;101337.13;5067519;28;47306;-44
2022/10/04 07:49:54;;;;;;;;;21.50;16.25;;;;;21.08;49.45;101327.25;5057683;28;45387;-47
2022/10/04 07:52:19;;;;;;;;;20.75;20.75;;;;;21.12;49.57;101327.16;5059849;28;45314;-43
2022/10/04 07:55:04;;;;;;;;;21.00;17.75;;;;;21.18;49.62;101326.09;5059319;28;45338;-44
2022/10/04 07:57:50;;;;;;;;;24.50;19.75;;;;;21.25;49.20;101317.09;5066215;28;47144;-42
2022/10/04 08:00:41;;;;;;;;;20.25;19.25;;;;;21.29;49.31;101325.91;5049330;28;45903;-40
2022/10/04 08:03:32;;;;;;;;;23.00;21.00;;;;;21.31;48.73;101324.94;5065408;28;45512;-42
2022/10/04 08:06:22;;;;;;;;;21.00;20.00;;;;;21.35;49.08;101328.38;5024536;28;45227;-43
2022/10/04 08:09:16;;;;;;;;;27.50;23.25;;;;;21.37;48.82;101319.47;5062810;28;45354;-44
2022/10/04 08:11:50;;;;;;;;;22.50;17.50;;;;;21.38;49.17;101310.59;5053338;28;45360;-42
2022/10/04 08:14:24;;;;;;;;;19.50;19.00;;;;;21.38;48.83;101302.63;5056556;28;45319;-41
2022/10/04 08:17:15;;;;;;;;;15.75;11.00;;;;;21.41;48.78;101310.50;5063168;28;45379;-45
2022/10/04 08:20:02;;;;;;;;;20.25;19.75;;;;;21.47;48.59;101313.91;5058336;28;46550;-43
2022/10/04 08:22:37;;;;;;;;;19.00;18.50;;;;;21.48;48.56;101305.91;5062521;28;45267;-42
2022/10/04 08:25:37;;;;;;;;;22.75;17.00;;;;;21.51;48.63;101304.94;5051295;28;45461;-43
2022/10/04 08:31:09;;;;;;;;;21.75;16.00;;;;;21.52;48.45;101312.84;5070616;28;45897;-43
2022/10/04 08:33:54;;;;;;;;;17.50;16.75;;;;;21.53;48.61;101319.03;5074480;28;45667;-42
2022/10/04 08:36:56;;;;;;;;;22.75;18.25;;;;;21.55;48.44;101320.75;5062518;28;45406;-43
2022/10/04 08:39:39;;;;;;;;;22.75;19.25;;;;;21.57;48.53;101326.03;5071106;28;45218;-45
2022/10/04 08:42:26;;;;;;;;;19.25;19.25;;;;;21.57;48.66;101339.31;5064200;28;45236;-42
2022/10/04 08:45:11;;;;;;;;;22.75;20.00;;;;;21.57;48.68;101337.53;5061844;28;45226;-42
2022/10/04 08:47:46;;;;;;;;;25.00;21.50;;;;;21.59;48.21;101335.69;5055254;28;45328;-42
2022/10/04 08:50:43;;;;;;;;;19.25;17.00;;;;;21.61;48.49;101340.97;5077658;28;45587;-40
2022/10/04 08:53:41;;;;;;;;;24.25;19.50;;;;;21.62;47.86;101345.34;5061886;28;47076;-43
2022/10/04 08:56:48;;;;;;;;;21.50;19.25;;;;;21.63;48.31;101348.00;5062400;28;45322;-40
2022/10/04 08:59:19;;;;;;;;;16.75;16.00;;;;;21.63;47.98;101345.34;5066941;28;45278;-40
2022/10/04 09:01:45;;;;;;;;;23.00;21.00;;;;;21.63;47.92;101347.09;5062292;27;45384;-40
2022/10/04 09:04:37;;;;;;;;;25.25;18.50;;;;;21.64;47.83;101348.88;5073181;28;46944;-40
2022/10/04 09:07:37;;;;;;;;;25.75;21.25;;;;;21.63;47.95;101350.66;5061912;28;45231;-40
2022/10/04 09:10:27;;;;;;;;;21.25;17.50;;;;;21.65;48.08;101353.25;5068709;28;46319;-41
2022/10/04 09:13:12;;;;;;;;;26.50;19.75;;;;;21.65;48.05;101351.47;5068631;27;45417;-41
2022/10/04 09:15:55;;;;;;;;;22.00;19.75;;;;;21.65;48.09;101339.97;5061344;28;45323;-41
2022/10/04 09:18:21;;;;;;;;;20.25;17.50;;;;;21.65;47.87;101342.63;5071289;28;45276;-42
2022/10/04 09:21:10;;;;;;;;;22.00;17.50;;;;;21.67;47.71;101348.78;5078314;28;45269;-40
2022/10/04 09:24:13;;;;;;;;;20.00;17.25;;;;;21.68;47.72;101353.16;5081905;28;45336;-43
2022/10/04 09:26:42;;;;;;;;;21.25;18.50;;;;;21.70;47.89;101360.19;5069072;28;46819;-42
2022/10/04 09:29:22;;;;;;;;;23.00;17.75;;;;;21.73;47.17;101354.81;5080349;28;45389;-41
2022/10/04 09:32:15;;;;;;;;;27.25;19.50;;;;;21.83;47.07;101355.41;5073187;28;45271;-40
2022/10/04 09:34:58;;;;;;;;;27.25;21.75;;;;;21.90;46.84;101354.34;5061694;28;45220;-45
2022/10/04 09:37:38;;;;;;;;;27.00;25.50;;;;;21.94;46.61;101348.00;5072956;28;46192;-42
2022/10/04 09:40:25;;;;;;;;;29.75;22.75;;;;;21.97;46.40;101337.28;5061467;28;45377;-41
2022/10/04 09:43:20;;;;;;;;;22.00;20.75;;;;;22.00;46.97;101339.88;5061574;28;45252;-40
2022/10/04 09:46:08;;;;;;;;;22.75;21.00;;;;;22.01;46.46;101328.31;5064589;28;45444;-40
2022/10/04 09:48:59;;;;;;;;;24.00;22.50;;;;;22.02;46.32;101313.25;5061279;28;46323;-40
2022/10/04 09:51:30;;;;;;;;;21.50;18.25;;;;;22.03;46.60;101314.97;5076940;28;45330;-40
2022/10/04 09:54:14;;;;;;;;;26.00;24.50;;;;;22.02;46.66;101316.75;5081378;28;45306;-40
2022/10/04 09:56:46;;;;;;;;;18.75;17.25;;;;;22.04;46.09;101315.84;5081235;27;45512;-41
2022/10/04 09:59:40;;;;;;;;;21.00;20.25;;;;;22.05;46.47;101320.25;5081262;28;45403;-40
2022/10/04 10:02:39;;;;;;;;;19.50;18.50;;;;;22.06;46.08;101324.63;5060894;28;45515;-40
2022/10/04 10:05:15;;;;;;;;;22.25;18.75;;;;;22.05;46.44;101320.25;5060082;28;45366;-40
2022/10/04 10:07:57;;;;;;;;;20.50;18.25;;;;;22.06;46.21;101320.19;5061105;28;45207;-41
2022/10/04 10:13:41;;;;;;;;;19.25;19.00;;;;;22.07;46.23;101315.78;5073970;28;45196;-41
2022/10/04 10:16:32;;;;;;;;;20.75;19.25;;;;;22.07;46.02;101311.38;5062979;28;45292;-45
2022/10/04 10:19:25;;;;;;;;;22.00;21.75;;;;;22.08;46.19;101307.78;5049875;28;46182;-43
2022/10/04 10:22:15;;;;;;;;;23.00;19.00;;;;;22.08;46.22;101304.25;5080950;28;46199;-41
2022/10/04 10:25:17;;;;;;;;;22.00;20.25;;;;;22.07;46.16;101303.38;5081083;27;45227;-43
2022/10/04 10:28:04;;;;;;;;;24.00;18.00;;;;;22.09;46.04;101290.06;5061649;27;45451;-44
2022/10/04 10:30:54;;;;;;;;;18.75;16.75;;;;;22.09;45.94;101287.38;5068318;28;45170;-41
2022/10/04 10:33:36;;;;;;;;;18.75;17.50;;;;;22.09;45.74;101287.38;5060870;28;46240;-41
2022/10/04 10:36:41;;;;;;;;;22.25;20.75;;;;;22.10;46.21;101278.50;5067567;28;45538;-41
2022/10/04 10:39:25;;;;;;;;;24.25;21.50;;;;;22.10;45.49;101282.03;5037539;28;45486;-40
2022/10/04 10:41:50;;;;;;;;;19.50;18.00;;;;;22.12;46.18;101276.66;5071623;28;45584;-42
2022/10/04 10:44:21;;;;;;;;;20.50;20.50;;;;;22.13;46.05;101275.72;5060392;28;45262;-42
2022/10/04 10:47:05;;;;;;;;;19.25;15.50;;;;;22.13;45.73;101273.06;5060515;28;45357;-42
2022/10/04 10:49:54;;;;;;;;;21.00;18.25;;;;;22.14;45.58;101277.47;5061392;28;45342;-43
2022/10/04 10:52:46;;;;;;;;;23.00;20.75;;;;;22.13;45.62;101289.03;5067360;28;48941;-41
2022/10/04 10:55:42;;;;;;;;;21.25;19.25;;;;;22.14;45.43;101285.44;5080466;28;46367;-43
2022/10/04 10:58:13;;;;;;;;;21.75;18.75;;;;;22.14;46.03;101275.69;5077849;28;45325;-41
2022/10/04 11:01:03;;;;;;;;;19.00;18.75;;;;;22.14;45.31;101280.13;5069414;28;45425;-41
2022/10/04 11:03:52;;;;;;;;;18.50;17.50;;;;;22.14;45.85;101275.69;5063514;28;45929;-44
2022/10/04 11:06:37;;;;;;;;;17.50;16.75;;;;;22.14;45.39;101275.69;5067002;28;45432;-42
2022/10/04 11:09:32;;;;;;;;;14.50;11.75;;;;;22.16;45.80;101278.31;5055611;28;45254;-42
2022/10/04 11:12:34;;;;;;;;;20.50;18.50;;;;;22.14;45.76;101272.16;5032029;27;45271;-41
2022/10/04 11:15:37;;;;;;;;;19.75;19.75;;;;;22.15;45.36;101276.53;5068678;28;46314;-44
2022/10/04 11:18:20;;;;;;;;;21.50;18.75;;;;;22.14;45.69;101285.44;5050195;28;46915;-43
2022/10/04 11:21:00;;;;;;;;;23.00;20.25;;;;;22.14;45.23;101281.00;5060671;28;45382;-45
2022/10/04 11:23:54;;;;;;;;;18.75;16.75;;;;;22.15;45.41;101295.16;5067710;28;45342;-46
2022/10/04 11:26:50;;;;;;;;;19.50;18.75;;;;;22.14;45.38;101290.75;5060333;28;45215;-44
2022/10/04 11:29:27;;;;;;;;;21.00;20.00;;;;;22.14;45.60;101290.75;5060312;28;47298;-40
2022/10/04 11:32:20;;;;;;;;;23.00;20.25;;;;;22.15;45.68;101287.19;5073374;28;45244;-41
2022/10/04 11:35:10;;;;;;;;;25.50;20.00;;;;;22.16;45.67;101291.63;5063663;28;45221;-41
2022/10/04 11:37:59;;;;;;;;;23.25;19.75;;;;;22.16;45.85;101295.13;5069820;28;45423;-43
2022/10/04 11:40:46;;;;;;;;;16.25;14.50;;;;;22.16;45.59;101296.94;5062031;28;47154;-40
2022/10/04 11:43:26;;;;;;;;;20.25;20.25;;;;;22.16;45.24;101305.78;5068219;28;45311;-40
2022/10/04 11:45:55;;;;;;;;;20.50;16.25;;;;;22.19;45.79;101307.47;5072162;28;45711;-43
2022/10/04 11:48:58;;;;;;;;;20.50;17.00;;;;;22.21;45.53;101305.63;5068806;27;45270;-42
2022/10/04 11:51:34;;;;;;;;;21.75;20.75;;;;;22.22;45.67;101302.03;5064153;28;45982;-46
2022/10/04 11:54:36;;;;;;;;;24.25;18.00;;;;;22.23;45.54;101301.13;5068320;28;45292;-42
2022/10/04 11:57:14;;;;;;;;;18.25;16.00;;;;;22.24;45.31;101297.53;5054733;28;45309;-43
2022/10/04 11:59:51;;;;;;;;;17.00;16.50;;;;;22.24;45.84;101289.56;5060857;28;45291;-41
2022/10/04 12:02:43;;;;;;;;;19.50;15.50;;;;;22.23;45.40;101279.84;5071892;27;46208;-43
2022/10/04 12:05:37;;;;;;;;;16.50;14.50;;;;;22.23;45.59;101279.84;5061956;28;45383;-40